Time;durP1;ratioP1;P1;durP2;ratioP2;P2;SDS_P1;SDS_P2;PMS_P1;PMS_P2;Temp;Humidity;BMP_temperature;BMP_pressure;BME280_temperature;BME280_humidity;BME280_pressure;Samples;Min_cycle;Max_cycle;Signal;HPM_P1;HPM_P2
2024/01/27 00:01:12;;;;;;;12.63;1.25;;;;;;;;;;5068178;28;20039;-82
2024/01/27 00:03:53;;;;;;;0.47;0.47;;;;;;;;;;5070319;28;20086;-84
2024/01/27 00:06:22;;;;;;;0.47;0.47;;;;;;;;;;5070525;28;20111;-84
2024/01/27 00:09:11;;;;;;;1.20;0.73;;;;;;;;;;5071308;28;20037;-85
2024/01/27 00:11:54;;;;;;;0.47;0.47;;;;;;;;;;5070879;28;20036;-84
2024/01/27 00:14:34;;;;;;;0.57;0.57;;;;;;;;;;5049985;28;20578;-84
2024/01/27 00:17:10;;;;;;;;;;;;;;;;;;5047493;28;20044;-80
2024/01/27 00:20:00;;;;;;;0.30;0.30;;;;;;;;;;5048877;28;19913;-85
2024/01/27 00:22:53;;;;;;;0.63;0.55;;;;;;;;;;5048980;28;20021;-84
2024/01/27 00:25:33;;;;;;;0.28;0.28;;;;;;;;;;5036492;28;20132;-82
2024/01/27 00:31:54;;;;;;;0.32;0.32;;;;;;;;;;5045180;28;20068;-84
2024/01/27 00:34:39;;;;;;;0.60;0.60;;;;;;;;;;5044879;28;20041;-81
2024/01/27 00:37:18;;;;;;;0.20;0.20;;;;;;;;;;5067921;28;20033;-84
2024/01/27 00:43:29;;;;;;;0.22;0.22;;;;;;;;;;5019955;28;20123;-86
2024/01/27 00:52:15;;;;;;;0.60;0.35;;;;;;;;;;5023164;28;20067;-83
2024/01/27 00:54:41;;;;;;;0.30;0.30;;;;;;;;;;5050708;28;20068;-81
2024/01/27 00:57:16;;;;;;;0.73;0.73;;;;;;;;;;5050081;28;20496;-83
2024/01/27 01:00:21;;;;;;;0.35;0.35;;;;;;;;;;5046143;28;20032;-85
2024/01/27 01:02:55;;;;;;;2.97;1.45;;;;;;;;;;4994771;28;20120;-83
2024/01/27 01:05:51;;;;;;;0.22;0.22;;;;;;;;;;5049383;28;20033;-84
2024/01/27 01:08:22;;;;;;;0.22;0.22;;;;;;;;;;5046997;28;20029;-82
2024/01/27 01:10:59;;;;;;;0.70;0.70;;;;;;;;;;5051531;28;20040;-85
2024/01/27 01:13:32;;;;;;;0.65;0.50;;;;;;;;;;5076262;28;20090;-83
2024/01/27 01:16:16;;;;;;;0.20;0.20;;;;;;;;;;5072575;28;20055;-83
2024/01/27 01:18:51;;;;;;;0.25;0.25;;;;;;;;;;5069098;28;20033;-82
2024/01/27 01:21:34;;;;;;;0.43;0.43;;;;;;;;;;5070540;28;20107;-84
2024/01/27 01:28:03;;;;;;;0.40;0.40;;;;;;;;;;5082082;28;20094;-84
2024/01/27 01:31:36;;;;;;;1.45;0.60;;;;;;;;;;5065241;28;20122;-87
2024/01/27 01:34:11;;;;;;;0.30;0.30;;;;;;;;;;5000428;28;20025;-82
2024/01/27 01:36:42;;;;;;;1.35;0.52;;;;;;;;;;4991056;28;20085;-83
2024/01/27 01:39:43;;;;;;;0.50;0.50;;;;;;;;;;5053077;28;20032;-83
2024/01/27 01:42:14;;;;;;;1.85;1.75;;;;;;;;;;5066716;28;20040;-83
2024/01/27 01:44:56;;;;;;;;;;;;;;;;;;;;;
2024/01/27 01:48:03;;;;;;;;;;;;;;;;;;;;;
2024/01/27 01:51:04;;;;;;;0.30;0.30;;;;;;;;;;5072793;28;20028;-84
2024/01/27 01:56:25;;;;;;;0.75;0.47;;;;;;;;;;5075646;28;20036;-80
2024/01/27 01:59:21;;;;;;;2.05;0.40;;;;;;;;;;5068935;28;20375;-84
2024/01/27 02:05:02;;;;;;;0.30;0.30;;;;;;;;;;5064014;28;20027;-83
2024/01/27 02:07:45;;;;;;;0.20;0.20;;;;;;;;;;5067431;28;20042;-82
2024/01/27 02:10:25;;;;;;;0.20;0.20;;;;;;;;;;5065840;28;20036;-85
2024/01/27 02:13:28;;;;;;;0.10;0.10;;;;;;;;;;5063466;28;20519;-83
2024/01/27 02:16:10;;;;;;;1.15;0.47;;;;;;;;;;5060248;28;20044;-85
2024/01/27 02:18:54;;;;;;;0.20;0.20;;;;;;;;;;5064897;28;20040;-83
2024/01/27 02:21:23;;;;;;;2.08;1.27;;;;;;;;;;5062407;28;20032;-83
2024/01/27 02:23:51;;;;;;;0.20;0.20;;;;;;;;;;5061904;28;20048;-85
2024/01/27 02:26:28;;;;;;;0.28;0.28;;;;;;;;;;5061624;28;20036;-83
2024/01/27 02:29:09;;;;;;;1.25;1.15;;;;;;;;;;5059891;28;20111;-82
2024/01/27 02:31:52;;;;;;;0.40;0.35;;;;;;;;;;5060403;28;20037;-85
2024/01/27 02:34:27;;;;;;;0.47;0.47;;;;;;;;;;5058659;28;20078;-84
2024/01/27 02:36:52;;;;;;;0.28;0.28;;;;;;;;;;5064491;28;20518;-86
2024/01/27 02:39:40;;;;;;;0.20;0.20;;;;;;;;;;5058171;28;20070;-83
2024/01/27 02:42:12;;;;;;;1.65;0.40;;;;;;;;;;5059011;28;20024;-86
2024/01/27 02:44:40;;;;;;;0.90;0.90;;;;;;;;;;5059497;28;20044;-85
2024/01/27 02:47:09;;;;;;;0.40;0.40;;;;;;;;;;5061524;28;20066;-83
2024/01/27 02:50:14;;;;;;;;;;;;;;;;;;;;;
2024/01/27 02:52:40;;;;;;;0.40;0.40;;;;;;;;;;5060736;28;20055;-84
2024/01/27 02:55:13;;;;;;;0.13;0.13;;;;;;;;;;5064227;28;20107;-83
2024/01/27 02:57:46;;;;;;;0.25;0.25;;;;;;;;;;5065839;28;20029;-84
2024/01/27 03:00:13;;;;;;;0.40;0.40;;;;;;;;;;5060435;28;20052;-84
2024/01/27 03:02:47;;;;;;;0.20;0.20;;;;;;;;;;5062235;28;20064;-83
2024/01/27 03:05:16;;;;;;;0.35;0.35;;;;;;;;;;5058206;28;20049;-87
2024/01/27 03:07:42;;;;;;;1.73;1.42;;;;;;;;;;5068899;28;20055;-82
2024/01/27 03:10:08;;;;;;;0.52;0.45;;;;;;;;;;5060744;28;20060;-83
2024/01/27 03:12:34;;;;;;;0.57;0.32;;;;;;;;;;5060927;28;20130;-85
2024/01/27 03:15:02;;;;;;;0.40;0.40;;;;;;;;;;5064672;28;20075;-81
2024/01/27 03:17:32;;;;;;;0.40;0.30;;;;;;;;;;5059743;28;20036;-84
2024/01/27 03:20:08;;;;;;;0.50;0.50;;;;;;;;;;5061380;28;20058;-82
2024/01/27 03:22:34;;;;;;;0.20;0.20;;;;;;;;;;5062216;28;20388;-81
2024/01/27 03:25:05;;;;;;;1.45;0.57;;;;;;;;;;5065749;28;20039;-84
2024/01/27 03:27:55;;;;;;;0.52;0.52;;;;;;;;;;5062505;28;20033;-84
2024/01/27 03:30:21;;;;;;;0.40;0.40;;;;;;;;;;5065176;28;20028;-84
2024/01/27 03:32:46;;;;;;;0.20;0.20;;;;;;;;;;5065349;28;20025;-84
2024/01/27 03:35:37;;;;;;;0.45;0.45;;;;;;;;;;5070368;28;20149;-84
2024/01/27 03:38:05;;;;;;;0.20;0.20;;;;;;;;;;5069201;28;20036;-84
2024/01/27 03:40:36;;;;;;;0.22;0.22;;;;;;;;;;5068720;28;20020;-83
2024/01/27 03:43:11;;;;;;;0.35;0.35;;;;;;;;;;5061166;28;20029;-84
2024/01/27 03:45:46;;;;;;;0.17;0.17;;;;;;;;;;5062715;28;20035;-83
2024/01/27 03:48:27;;;;;;;0.20;0.20;;;;;;;;;;5067339;28;20032;-85
2024/01/27 03:51:16;;;;;;;0.38;0.38;;;;;;;;;;5070255;28;20035;-87
2024/01/27 03:53:45;;;;;;;0.28;0.28;;;;;;;;;;5063184;28;20066;-86
2024/01/27 03:56:19;;;;;;;0.43;0.30;;;;;;;;;;5064621;28;20024;-84
2024/01/27 03:58:47;;;;;;;0.60;0.60;;;;;;;;;;5064078;28;20422;-82
2024/01/27 04:01:16;;;;;;;0.40;0.40;;;;;;;;;;5065532;28;20036;-85
2024/01/27 04:03:57;;;;;;;0.30;0.30;;;;;;;;;;5066675;28;20033;-85
2024/01/27 04:06:23;;;;;;;0.50;0.50;;;;;;;;;;5067312;28;20032;-84
2024/01/27 04:08:52;;;;;;;1.05;0.85;;;;;;;;;;5062639;28;20032;-85
2024/01/27 04:11:21;;;;;;;0.35;0.35;;;;;;;;;;5064242;28;20025;-84
2024/01/27 04:13:55;;;;;;;0.40;0.40;;;;;;;;;;5081922;28;20048;-84
2024/01/27 04:16:21;;;;;;;4.18;1.30;;;;;;;;;;5064415;28;20368;-84
2024/01/27 04:18:58;;;;;;;0.25;0.25;;;;;;;;;;5086721;28;20028;-85
2024/01/27 04:21:42;;;;;;;0.35;0.35;;;;;;;;;;5064059;28;20143;-84
2024/01/27 04:24:27;;;;;;;0.50;0.50;;;;;;;;;;5068558;28;20460;-86
2024/01/27 04:27:23;;;;;;;0.55;0.50;;;;;;;;;;5068496;28;20469;-83
2024/01/27 04:29:53;;;;;;;0.73;0.73;;;;;;;;;;5083485;28;20028;-85
2024/01/27 04:32:22;;;;;;;0.55;0.55;;;;;;;;;;5084728;28;20109;-82
2024/01/27 04:34:48;;;;;;;0.52;0.52;;;;;;;;;;5063514;28;20384;-83
2024/01/27 04:37:45;;;;;;;3.00;0.40;;;;;;;;;;5084315;28;20028;-85
2024/01/27 04:40:19;;;;;;;1.00;0.93;;;;;;;;;;5083744;28;20647;-84
2024/01/27 04:43:06;;;;;;;0.35;0.35;;;;;;;;;;5071438;28;20533;-86
2024/01/27 04:45:40;;;;;;;2.05;1.35;;;;;;;;;;5062890;28;20599;-85
2024/01/27 04:48:24;;;;;;;1.00;1.00;;;;;;;;;;5071539;28;20379;-86
2024/01/27 04:50:50;;;;;;;0.30;0.30;;;;;;;;;;5069770;28;20075;-84
2024/01/27 04:53:26;;;;;;;0.38;0.38;;;;;;;;;;5068939;28;20024;-85
2024/01/27 04:56:13;;;;;;;0.30;0.30;;;;;;;;;;5064931;28;20028;-85
2024/01/27 04:59:42;;;;;;;;;;;;;;;;;;;;;
2024/01/27 05:02:13;;;;;;;0.68;0.60;;;;;;;;;;5083693;28;20772;-86
2024/01/27 05:04:55;;;;;;;0.28;0.28;;;;;;;;;;5078487;28;20115;-81
2024/01/27 05:07:26;;;;;;;1.27;1.08;;;;;;;;;;5062513;28;20036;-86
2024/01/27 05:09:51;;;;;;;0.30;0.30;;;;;;;;;;5066470;28;20035;-84
2024/01/27 05:12:56;;;;;;;;;;;;;;;;;;;;;
2024/01/27 05:15:30;;;;;;;0.35;0.35;;;;;;;;;;5057790;28;20042;-83
2024/01/27 05:18:21;;;;;;;0.20;0.20;;;;;;;;;;5071732;28;20106;-83
2024/01/27 05:21:03;;;;;;;0.28;0.28;;;;;;;;;;5072034;28;20078;-88
2024/01/27 05:23:32;;;;;;;0.20;0.20;;;;;;;;;;5092023;28;20467;-85
2024/01/27 05:26:00;;;;;;;0.10;0.10;;;;;;;;;;5072208;28;20126;-88
2024/01/27 05:28:29;;;;;;;0.30;0.30;;;;;;;;;;5086900;28;20064;-88
2024/01/27 05:30:57;;;;;;;0.20;0.20;;;;;;;;;;5069601;28;20119;-85
2024/01/27 05:33:31;;;;;;;0.40;0.40;;;;;;;;;;5071908;28;20056;-86
2024/01/27 05:36:02;;;;;;;1.27;0.57;;;;;;;;;;5068646;28;20440;-86
2024/01/27 05:38:31;;;;;;;0.20;0.20;;;;;;;;;;5069064;28;20036;-85
2024/01/27 05:41:03;;;;;;;3.90;1.67;;;;;;;;;;5070946;28;20028;-86
2024/01/27 05:43:33;;;;;;;0.20;0.20;;;;;;;;;;5069659;28;20082;-82
2024/01/27 05:46:14;;;;;;;0.20;0.20;;;;;;;;;;5069081;28;20020;-84
2024/01/27 05:48:42;;;;;;;0.10;0.10;;;;;;;;;;5068924;28;20384;-84
2024/01/27 05:51:38;;;;;;;0.20;0.20;;;;;;;;;;5065286;28;20027;-82
2024/01/27 05:54:10;;;;;;;0.40;0.40;;;;;;;;;;5086393;28;20040;-84
2024/01/27 06:00:13;;;;;;;0.30;0.30;;;;;;;;;;5080655;28;20043;-84
2024/01/27 06:02:48;;;;;;;0.47;0.47;;;;;;;;;;5060481;28;20478;-81
2024/01/27 06:05:28;;;;;;;0.30;0.30;;;;;;;;;;5067796;28;20028;-84
2024/01/27 06:08:24;;;;;;;0.30;0.30;;;;;;;;;;5067023;28;20073;-85
2024/01/27 06:10:58;;;;;;;0.20;0.20;;;;;;;;;;5059233;28;20024;-81
2024/01/27 06:14:08;;;;;;;0.68;0.68;;;;;;;;;;5060534;28;20162;-84
2024/01/27 06:17:10;;;;;;;0.30;0.30;;;;;;;;;;5055493;28;20400;-82
2024/01/27 06:19:38;;;;;;;0.28;0.28;;;;;;;;;;5062456;28;20036;-80
2024/01/27 06:22:03;;;;;;;0.50;0.50;;;;;;;;;;5062347;28;20028;-85
2024/01/27 06:24:29;;;;;;;0.63;0.60;;;;;;;;;;5063277;28;20104;-82
2024/01/27 06:26:54;;;;;;;0.30;0.30;;;;;;;;;;5059257;28;20032;-81
2024/01/27 06:29:20;;;;;;;0.45;0.45;;;;;;;;;;5060373;28;20032;-82
2024/01/27 06:31:45;;;;;;;0.63;0.63;;;;;;;;;;5066083;28;20551;-82
2024/01/27 06:34:10;;;;;;;0.50;0.50;;;;;;;;;;5061484;28;20742;-82
2024/01/27 06:36:36;;;;;;;0.70;0.70;;;;;;;;;;5066432;28;20111;-81
2024/01/27 06:39:01;;;;;;;0.52;0.50;;;;;;;;;;5064889;28;20032;-86
2024/01/27 06:41:26;;;;;;;2.05;0.43;;;;;;;;;;5064498;28;20043;-84
2024/01/27 06:43:52;;;;;;;1.00;0.70;;;;;;;;;;5062807;28;20476;-86
2024/01/27 06:46:17;;;;;;;0.40;0.40;;;;;;;;;;5064039;28;20037;-83
2024/01/27 06:48:43;;;;;;;0.70;0.70;;;;;;;;;;5060467;28;20052;-80
2024/01/27 06:51:08;;;;;;;0.45;0.45;;;;;;;;;;5070078;28;20020;-85
2024/01/27 06:53:34;;;;;;;0.40;0.40;;;;;;;;;;5067120;28;20116;-81
2024/01/27 06:55:59;;;;;;;0.30;0.30;;;;;;;;;;5067932;28;20468;-83
2024/01/27 06:58:25;;;;;;;0.32;0.32;;;;;;;;;;5071845;28;20062;-83
2024/01/27 07:00:50;;;;;;;0.63;0.63;;;;;;;;;;5065011;28;20036;-81
2024/01/27 07:03:15;;;;;;;2.50;0.60;;;;;;;;;;5062912;28;20027;-80
2024/01/27 07:05:41;;;;;;;0.30;0.30;;;;;;;;;;5070626;28;20077;-84
2024/01/27 07:08:07;;;;;;;0.45;0.45;;;;;;;;;;5068605;28;20363;-84
2024/01/27 07:10:33;;;;;;;1.52;0.98;;;;;;;;;;5067703;28;20341;-82
2024/01/27 07:12:58;;;;;;;0.32;0.32;;;;;;;;;;5068961;28;20047;-84
2024/01/27 07:15:24;;;;;;;0.63;0.63;;;;;;;;;;5079533;28;20112;-86
2024/01/27 07:17:49;;;;;;;0.85;0.52;;;;;;;;;;5081304;28;20032;-81
2024/01/27 07:20:15;;;;;;;0.30;0.30;;;;;;;;;;5061851;28;20073;-84
2024/01/27 07:22:41;;;;;;;0.30;0.30;;;;;;;;;;5084206;28;20024;-83
2024/01/27 07:25:09;;;;;;;0.32;0.32;;;;;;;;;;5079689;28;20023;-82
2024/01/27 07:27:35;;;;;;;0.50;0.50;;;;;;;;;;5077050;28;20089;-83
2024/01/27 07:30:01;;;;;;;2.30;0.70;;;;;;;;;;5077705;28;20023;-82
2024/01/27 07:32:27;;;;;;;1.48;1.00;;;;;;;;;;5080798;28;20440;-82
2024/01/27 07:34:52;;;;;;;1.17;0.95;;;;;;;;;;5084131;28;20040;-82
2024/01/27 07:37:18;;;;;;;1.48;0.77;;;;;;;;;;5078172;28;20031;-82
2024/01/27 07:39:44;;;;;;;2.15;1.38;;;;;;;;;;5088837;28;20388;-80
2024/01/27 07:42:10;;;;;;;0.85;0.85;;;;;;;;;;5073017;28;20077;-82
2024/01/27 07:44:35;;;;;;;5.15;1.13;;;;;;;;;;5070378;28;20103;-81
2024/01/27 07:47:02;;;;;;;0.98;0.93;;;;;;;;;;5090972;28;20044;-81
2024/01/27 07:49:28;;;;;;;2.50;0.98;;;;;;;;;;5088617;28;20077;-82
2024/01/27 07:51:53;;;;;;;2.17;1.30;;;;;;;;;;5067230;28;20109;-82
2024/01/27 07:54:19;;;;;;;0.38;0.38;;;;;;;;;;5085375;28;20468;-81
2024/01/27 07:56:44;;;;;;;4.57;0.98;;;;;;;;;;5070281;28;20039;-81
2024/01/27 07:59:13;;;;;;;3.95;1.45;;;;;;;;;;5086917;28;20028;-84
2024/01/27 08:01:40;;;;;;;2.53;1.70;;;;;;;;;;5088700;28;20016;-82
2024/01/27 08:04:05;;;;;;;3.08;1.40;;;;;;;;;;5072177;28;20036;-80
2024/01/27 08:06:31;;;;;;;0.47;0.43;;;;;;;;;;5072574;28;20031;-81
2024/01/27 08:08:56;;;;;;;0.70;0.70;;;;;;;;;;5085006;28;20098;-81
2024/01/27 08:11:22;;;;;;;0.93;0.88;;;;;;;;;;5072074;28;20031;-80
2024/01/27 08:13:48;;;;;;;1.27;0.90;;;;;;;;;;5069112;28;20056;-80
2024/01/27 08:16:14;;;;;;;2.22;1.23;;;;;;;;;;5069315;28;20428;-80
2024/01/27 08:18:42;;;;;;;1.38;0.55;;;;;;;;;;5070722;28;20032;-80
2024/01/27 08:21:08;;;;;;;4.72;1.60;;;;;;;;;;5067608;28;20039;-81
2024/01/27 08:23:33;;;;;;;1.50;1.40;;;;;;;;;;5069606;28;20396;-80
2024/01/27 08:25:59;;;;;;;1.02;0.90;;;;;;;;;;5070715;28;20016;-82
2024/01/27 08:28:24;;;;;;;3.47;1.70;;;;;;;;;;5066097;28;20028;-80
2024/01/27 08:30:49;;;;;;;1.20;1.10;;;;;;;;;;5070431;28;20040;-82
2024/01/27 08:33:15;;;;;;;0.80;0.80;;;;;;;;;;5068473;28;20418;-80
2024/01/27 08:35:41;;;;;;;3.28;2.17;;;;;;;;;;5070281;28;20028;-81
2024/01/27 08:38:08;;;;;;;0.55;0.55;;;;;;;;;;5070254;28;20047;-79
2024/01/27 08:40:34;;;;;;;0.93;0.70;;;;;;;;;;5070869;28;20060;-82
2024/01/27 08:42:59;;;;;;;1.38;0.90;;;;;;;;;;5068379;28;20067;-82
2024/01/27 08:45:26;;;;;;;2.45;1.92;;;;;;;;;;5070058;28;20024;-83
2024/01/27 08:47:51;;;;;;;1.00;0.77;;;;;;;;;;5069736;28;20846;-80
2024/01/27 08:50:17;;;;;;;1.23;1.17;;;;;;;;;;5068259;28;20032;-82
2024/01/27 08:52:42;;;;;;;3.88;2.22;;;;;;;;;;5068201;28;20111;-82
2024/01/27 08:55:08;;;;;;;0.50;0.50;;;;;;;;;;5070443;28;20054;-83
2024/01/27 08:57:33;;;;;;;0.57;0.57;;;;;;;;;;5068506;28;20376;-83
2024/01/27 08:59:59;;;;;;;0.50;0.50;;;;;;;;;;5068140;28;20372;-82
2024/01/27 09:02:24;;;;;;;2.80;1.25;;;;;;;;;;5066658;28;21477;-83
2024/01/27 09:04:50;;;;;;;0.57;0.57;;;;;;;;;;5069930;28;20028;-82
2024/01/27 09:07:16;;;;;;;0.73;0.73;;;;;;;;;;5067650;28;20039;-82
2024/01/27 09:09:41;;;;;;;0.68;0.68;;;;;;;;;;5069971;28;20093;-83
2024/01/27 09:12:07;;;;;;;1.45;1.35;;;;;;;;;;5069738;28;20120;-84
2024/01/27 09:14:33;;;;;;;0.95;0.90;;;;;;;;;;5072350;28;20123;-81
2024/01/27 09:17:00;;;;;;;2.28;1.48;;;;;;;;;;5069545;28;20418;-82
2024/01/27 09:19:26;;;;;;;1.25;1.02;;;;;;;;;;5068226;28;20051;-82
2024/01/27 09:21:51;;;;;;;0.77;0.70;;;;;;;;;;5090097;28;20431;-85
2024/01/27 09:24:16;;;;;;;1.42;0.80;;;;;;;;;;5071741;28;20471;-82
2024/01/27 09:26:42;;;;;;;1.95;0.85;;;;;;;;;;5071396;28;20034;-82
2024/01/27 09:29:07;;;;;;;0.60;0.60;;;;;;;;;;5087126;28;20028;-83
2024/01/27 09:31:36;;;;;;;1.98;1.05;;;;;;;;;;5085219;28;20028;-81
2024/01/27 09:34:01;;;;;;;1.10;0.75;;;;;;;;;;5089095;28;20471;-83
2024/01/27 09:36:27;;;;;;;0.65;0.65;;;;;;;;;;5088909;28;20035;-84
2024/01/27 09:38:54;;;;;;;1.42;1.23;;;;;;;;;;5072601;28;20422;-81
2024/01/27 09:41:20;;;;;;;6.10;1.40;;;;;;;;;;5088364;28;20026;-82
2024/01/27 09:43:46;;;;;;;0.60;0.60;;;;;;;;;;5071615;28;20479;-80
2024/01/27 09:46:12;;;;;;;0.50;0.50;;;;;;;;;;5087226;28;20024;-84
2024/01/27 09:48:38;;;;;;;1.17;0.52;;;;;;;;;;5088509;28;20035;-84
2024/01/27 09:51:08;;;;;;;0.55;0.55;;;;;;;;;;5071288;28;20484;-83
2024/01/27 09:53:34;;;;;;;1.20;1.10;;;;;;;;;;5070514;28;20028;-83
2024/01/27 09:56:04;;;;;;;0.80;0.80;;;;;;;;;;5087787;28;20437;-80
2024/01/27 09:58:30;;;;;;;0.30;0.30;;;;;;;;;;5070401;28;20603;-81
2024/01/27 10:00:57;;;;;;;0.40;0.40;;;;;;;;;;5082220;28;20042;-83
2024/01/27 10:03:28;;;;;;;0.40;0.40;;;;;;;;;;5066548;28;20031;-81
2024/01/27 10:05:56;;;;;;;0.47;0.47;;;;;;;;;;5076924;28;20063;-85
2024/01/27 10:08:22;;;;;;;1.20;1.10;;;;;;;;;;5086833;28;20058;-81
2024/01/27 10:10:52;;;;;;;0.70;0.70;;;;;;;;;;5085683;28;20111;-80
2024/01/27 10:13:17;;;;;;;0.85;0.75;;;;;;;;;;5069360;28;20066;-82
2024/01/27 10:15:43;;;;;;;2.15;1.75;;;;;;;;;;5071192;28;20063;-81
2024/01/27 10:18:12;;;;;;;1.70;1.30;;;;;;;;;;5069549;28;20046;-81
2024/01/27 10:20:39;;;;;;;2.15;1.35;;;;;;;;;;5089975;28;20113;-81
2024/01/27 10:23:11;;;;;;;0.80;0.80;;;;;;;;;;5091823;28;20119;-81
2024/01/27 10:25:38;;;;;;;0.40;0.40;;;;;;;;;;5094115;28;20463;-81
2024/01/27 10:28:05;;;;;;;3.20;1.67;;;;;;;;;;5093411;28;20028;-81
2024/01/27 10:30:31;;;;;;;0.65;0.60;;;;;;;;;;5093203;28;20028;-80
2024/01/27 10:32:56;;;;;;;0.57;0.57;;;;;;;;;;5074353;28;20150;-80
2024/01/27 10:35:22;;;;;;;0.70;0.70;;;;;;;;;;5092866;28;20028;-83
2024/01/27 10:37:52;;;;;;;1.17;1.08;;;;;;;;;;5073170;28;20040;-80
2024/01/27 10:40:17;;;;;;;1.85;1.13;;;;;;;;;;5092498;28;20134;-82
2024/01/27 10:42:44;;;;;;;0.63;0.63;;;;;;;;;;5093452;28;20020;-80
2024/01/27 10:45:12;;;;;;;0.50;0.50;;;;;;;;;;5093805;28;20030;-82
2024/01/27 10:47:41;;;;;;;1.05;1.05;;;;;;;;;;5091383;28;20031;-81
2024/01/27 10:50:17;;;;;;;0.93;0.90;;;;;;;;;;5093671;28;20099;-81
2024/01/27 10:52:45;;;;;;;0.40;0.40;;;;;;;;;;5090871;28;20031;-79
2024/01/27 10:55:12;;;;;;;0.73;0.73;;;;;;;;;;5093573;28;20055;-80
2024/01/27 10:57:38;;;;;;;1.88;1.25;;;;;;;;;;5088224;28;20035;-82
2024/01/27 11:00:09;;;;;;;0.50;0.50;;;;;;;;;;5093305;28;20024;-81
2024/01/27 11:02:35;;;;;;;1.90;1.40;;;;;;;;;;5070805;28;20020;-79
2024/01/27 11:05:04;;;;;;;0.40;0.40;;;;;;;;;;5092145;28;20028;-81
2024/01/27 11:07:35;;;;;;;1.50;1.17;;;;;;;;;;5091829;28;20028;-81
2024/01/27 11:10:00;;;;;;;1.83;1.10;;;;;;;;;;5070251;28;20061;-79
2024/01/27 11:12:26;;;;;;;0.47;0.47;;;;;;;;;;5092453;28;20039;-81
2024/01/27 11:14:53;;;;;;;0.40;0.40;;;;;;;;;;5089841;28;20532;-79
2024/01/27 11:17:24;;;;;;;0.50;0.50;;;;;;;;;;5092221;28;20109;-80
2024/01/27 11:19:50;;;;;;;1.17;0.82;;;;;;;;;;5074095;28;20110;-81
2024/01/27 11:22:43;;;;;;;1.45;0.73;;;;;;;;;;5074012;28;20471;-82
2024/01/27 11:25:12;;;;;;;0.47;0.47;;;;;;;;;;5069315;28;20048;-81
2024/01/27 11:27:40;;;;;;;1.00;0.93;;;;;;;;;;5091537;28;20020;-80
2024/01/27 11:30:23;;;;;;;0.55;0.55;;;;;;;;;;5090954;28;20478;-79
2024/01/27 11:32:49;;;;;;;0.55;0.55;;;;;;;;;;5088222;28;20039;-84
2024/01/27 11:35:17;;;;;;;0.47;0.47;;;;;;;;;;5074319;28;20387;-85
2024/01/27 11:37:43;;;;;;;1.55;1.20;;;;;;;;;;5091296;28;20028;-81
2024/01/27 11:40:09;;;;;;;0.50;0.50;;;;;;;;;;5091944;28;20032;-80
2024/01/27 11:42:35;;;;;;;1.05;0.88;;;;;;;;;;5071835;28;20047;-79
2024/01/27 11:45:01;;;;;;;0.85;0.85;;;;;;;;;;5091958;28;20036;-79
2024/01/27 11:47:27;;;;;;;0.57;0.57;;;;;;;;;;5090513;28;20032;-81
2024/01/27 11:49:55;;;;;;;0.45;0.45;;;;;;;;;;5088465;28;20020;-80
2024/01/27 11:52:21;;;;;;;0.47;0.47;;;;;;;;;;5073118;28;20044;-81
2024/01/27 11:55:02;;;;;;;2.17;1.55;;;;;;;;;;5092025;28;20028;-80
2024/01/27 11:57:27;;;;;;;1.55;0.75;;;;;;;;;;5090194;28;20053;-83
2024/01/27 11:59:53;;;;;;;0.70;0.70;;;;;;;;;;5091328;28;20024;-81
2024/01/27 12:02:20;;;;;;;1.60;1.50;;;;;;;;;;5072415;28;20042;-83
2024/01/27 12:04:46;;;;;;;1.08;0.90;;;;;;;;;;5090128;28;20031;-80
2024/01/27 12:07:12;;;;;;;3.28;2.28;;;;;;;;;;5089426;28;20039;-81
2024/01/27 12:09:37;;;;;;;0.88;0.88;;;;;;;;;;5091422;28;20028;-82
2024/01/27 12:12:04;;;;;;;1.00;0.88;;;;;;;;;;5071201;28;20464;-80
2024/01/27 12:14:45;;;;;;;1.50;1.40;;;;;;;;;;5091816;28;20039;-83
2024/01/27 12:17:11;;;;;;;1.05;1.00;;;;;;;;;;5070745;28;20055;-82
2024/01/27 12:19:37;;;;;;;0.40;0.40;;;;;;;;;;5069560;28;20024;-83
2024/01/27 12:22:04;;;;;;;1.13;1.08;;;;;;;;;;5091160;28;20517;-81
2024/01/27 12:24:30;;;;;;;1.23;1.00;;;;;;;;;;5070479;28;20024;-81
2024/01/27 12:26:59;;;;;;;0.82;0.82;;;;;;;;;;5071594;28;20382;-82
2024/01/27 12:29:24;;;;;;;0.30;0.30;;;;;;;;;;5090613;28;20479;-84
2024/01/27 12:31:50;;;;;;;1.60;1.00;;;;;;;;;;5072883;28;20035;-81
2024/01/27 12:34:16;;;;;;;0.52;0.40;;;;;;;;;;5090344;28;20048;-81
2024/01/27 12:36:42;;;;;;;0.82;0.80;;;;;;;;;;5072645;28;20055;-79
2024/01/27 12:39:08;;;;;;;2.10;1.70;;;;;;;;;;5091100;28;20491;-80
2024/01/27 12:41:36;;;;;;;0.57;0.52;;;;;;;;;;5089502;28;20035;-81
2024/01/27 12:44:03;;;;;;;0.40;0.40;;;;;;;;;;5090291;28;20472;-81
2024/01/27 12:46:31;;;;;;;1.38;0.93;;;;;;;;;;5090281;28;20020;-84
2024/01/27 12:48:56;;;;;;;1.17;1.00;;;;;;;;;;5071865;28;20161;-83
2024/01/27 12:51:22;;;;;;;4.35;2.53;;;;;;;;;;5089529;28;20586;-81
2024/01/27 12:53:54;;;;;;;1.65;0.88;;;;;;;;;;5071665;28;20028;-82
2024/01/27 12:56:22;;;;;;;1.58;1.40;;;;;;;;;;5090469;28;20028;-82
2024/01/27 12:58:48;;;;;;;1.35;1.20;;;;;;;;;;5087935;28;20032;-81
2024/01/27 13:01:16;;;;;;;1.80;1.05;;;;;;;;;;5090930;28;20393;-83
2024/01/27 13:03:42;;;;;;;1.15;1.02;;;;;;;;;;5087218;28;20372;-83
2024/01/27 13:06:08;;;;;;;2.70;2.35;;;;;;;;;;5089159;28;20020;-81
2024/01/27 13:08:33;;;;;;;2.83;2.03;;;;;;;;;;5089639;28;20036;-79
2024/01/27 13:10:59;;;;;;;1.27;0.98;;;;;;;;;;5091149;28;20028;-82
2024/01/27 13:13:24;;;;;;;3.17;1.95;;;;;;;;;;5089156;28;20381;-81
2024/01/27 13:15:52;;;;;;;1.55;1.23;;;;;;;;;;5089888;28;20388;-80
2024/01/27 13:18:25;;;;;;;1.30;1.00;;;;;;;;;;5089145;28;20456;-82
2024/01/27 13:20:53;;;;;;;4.18;2.03;;;;;;;;;;5071229;28;20031;-81
2024/01/27 13:23:19;;;;;;;1.00;0.95;;;;;;;;;;5087779;28;20016;-79
2024/01/27 13:25:44;;;;;;;1.48;1.13;;;;;;;;;;5090632;28;20035;-82
2024/01/27 13:28:11;;;;;;;1.05;0.98;;;;;;;;;;5089132;28;20020;-80
2024/01/27 13:30:37;;;;;;;1.13;0.90;;;;;;;;;;5071593;28;20047;-80
2024/01/27 13:33:02;;;;;;;1.75;1.65;;;;;;;;;;5089663;28;20028;-82
2024/01/27 13:35:28;;;;;;;1.27;0.90;;;;;;;;;;5071970;28;20051;-83
2024/01/27 13:37:53;;;;;;;1.25;1.08;;;;;;;;;;5069875;28;20032;-82
2024/01/27 13:40:19;;;;;;;3.72;1.20;;;;;;;;;;5088454;28;20111;-81
2024/01/27 13:42:44;;;;;;;7.53;1.20;;;;;;;;;;5087660;28;20115;-82
2024/01/27 13:45:11;;;;;;;0.70;0.70;;;;;;;;;;5090606;28;20163;-83
2024/01/27 13:47:36;;;;;;;1.15;1.05;;;;;;;;;;5088439;28;20105;-80
2024/01/27 13:50:02;;;;;;;2.40;1.30;;;;;;;;;;5090908;28;20024;-81
2024/01/27 13:52:29;;;;;;;0.38;0.38;;;;;;;;;;5069252;28;20028;-79
2024/01/27 13:54:54;;;;;;;0.88;0.57;;;;;;;;;;5088890;28;20056;-80
2024/01/27 13:57:20;;;;;;;3.45;1.05;;;;;;;;;;5088939;28;20097;-80
2024/01/27 13:59:46;;;;;;;0.65;0.65;;;;;;;;;;5089934;28;20491;-83
2024/01/27 14:02:11;;;;;;;0.88;0.77;;;;;;;;;;5088664;28;20491;-82
2024/01/27 14:04:36;;;;;;;1.15;0.80;;;;;;;;;;5071568;28;20028;-80
2024/01/27 14:07:07;;;;;;;0.40;0.40;;;;;;;;;;5084733;28;20024;-81
2024/01/27 14:09:36;;;;;;;2.45;1.58;;;;;;;;;;5087467;28;20077;-82
2024/01/27 14:12:02;;;;;;;0.55;0.55;;;;;;;;;;5088516;28;20388;-82
2024/01/27 14:14:31;;;;;;;0.70;0.70;;;;;;;;;;5070934;28;20134;-84
2024/01/27 14:16:59;;;;;;;0.80;0.75;;;;;;;;;;5088825;28;20126;-79
2024/01/27 14:19:26;;;;;;;0.63;0.63;;;;;;;;;;5070435;28;20433;-83
2024/01/27 14:21:55;;;;;;;1.50;1.27;;;;;;;;;;5068506;28;20051;-81
2024/01/27 14:24:25;;;;;;;0.30;0.30;;;;;;;;;;5071903;28;20027;-79
2024/01/27 14:26:51;;;;;;;0.63;0.63;;;;;;;;;;5070407;28;20476;-81
2024/01/27 14:29:16;;;;;;;0.75;0.75;;;;;;;;;;5089154;28;20031;-81
2024/01/27 14:31:42;;;;;;;1.00;1.00;;;;;;;;;;5071116;28;20107;-81
2024/01/27 14:34:10;;;;;;;2.10;1.45;;;;;;;;;;5089024;28;20036;-81
2024/01/27 14:36:36;;;;;;;0.40;0.40;;;;;;;;;;5087552;28;20375;-81
2024/01/27 14:39:04;;;;;;;3.90;1.60;;;;;;;;;;5090013;28;20077;-82
2024/01/27 14:41:30;;;;;;;0.95;0.95;;;;;;;;;;5070918;28;20056;-81
2024/01/27 14:43:55;;;;;;;1.10;1.10;;;;;;;;;;5089697;28;20064;-83
2024/01/27 14:46:22;;;;;;;1.02;0.75;;;;;;;;;;5071044;28;20111;-81
2024/01/27 14:48:48;;;;;;;1.80;1.02;;;;;;;;;;5070432;28;20024;-83
2024/01/27 14:51:13;;;;;;;0.50;0.50;;;;;;;;;;5088759;28;20352;-81
2024/01/27 14:53:39;;;;;;;0.32;0.32;;;;;;;;;;5084320;28;20040;-81
2024/01/27 14:56:05;;;;;;;1.00;0.90;;;;;;;;;;5070743;28;20032;-83
2024/01/27 14:58:31;;;;;;;0.50;0.43;;;;;;;;;;5066754;28;20028;-79
2024/01/27 15:00:59;;;;;;;0.43;0.43;;;;;;;;;;5087411;28;20720;-82
2024/01/27 15:03:25;;;;;;;0.85;0.85;;;;;;;;;;5059567;28;20028;-83
2024/01/27 15:05:53;;;;;;;1.73;1.48;;;;;;;;;;5085411;28;20391;-85
2024/01/27 15:08:20;;;;;;;0.40;0.40;;;;;;;;;;5084596;28;20039;-83
2024/01/27 15:10:47;;;;;;;0.47;0.47;;;;;;;;;;5086868;28;20028;-83
2024/01/27 15:13:13;;;;;;;0.65;0.65;;;;;;;;;;5088638;28;20044;-82
2024/01/27 15:17:04;;;;;;;0.98;0.65;;;;;;;;;;5091884;27;20423;-81
2024/01/27 15:19:29;;;;;;;0.98;0.95;;;;;;;;;;5092741;28;20487;-81
2024/01/27 15:21:55;;;;;;;0.77;0.77;;;;;;;;;;5095385;28;20831;-81
2024/01/27 15:24:20;;;;;;;1.75;1.10;;;;;;;;;;5094499;28;20096;-80
2024/01/27 15:26:46;;;;;;;0.60;0.60;;;;;;;;;;5090053;28;20036;-84
2024/01/27 15:29:12;;;;;;;0.30;0.30;;;;;;;;;;5090602;28;20107;-81
2024/01/27 15:31:40;;;;;;;0.40;0.40;;;;;;;;;;5088207;28;20056;-82
2024/01/27 15:34:08;;;;;;;1.02;0.95;;;;;;;;;;5093458;28;20031;-81
2024/01/27 15:36:36;;;;;;;0.47;0.47;;;;;;;;;;5094987;28;20055;-84
2024/01/27 15:39:01;;;;;;;1.00;0.98;;;;;;;;;;5090996;28;20028;-84